createdAt,value
2023-11-07T00:00:34.360Z,7.21
2023-11-07T00:05:34.420Z,7.24
2023-11-07T00:13:20.314Z,8.40
2023-11-07T00:17:59.330Z,7.93
2023-11-07T00:22:59.334Z,7.62
2023-11-07T00:27:59.203Z,7.44
2023-11-07T00:32:59.476Z,7.32
2023-11-07T00:37:58.989Z,7.26
2023-11-07T00:42:59.009Z,7.26
2023-11-07T00:47:59.083Z,7.29
2023-11-07T00:52:58.813Z,7.36
2023-11-07T00:57:58.757Z,7.41
2023-11-07T01:03:01.986Z,7.46
2023-11-07T01:07:58.641Z,7.51
2023-11-07T01:12:58.559Z,7.58
2023-11-07T01:17:58.544Z,7.61
2023-11-07T01:22:58.402Z,7.59
2023-11-07T01:27:58.335Z,7.58
2023-11-07T01:32:58.390Z,7.60
2023-11-07T01:37:58.215Z,7.65
2023-11-07T01:42:58.306Z,7.69
2023-11-07T01:47:58.152Z,7.73
2023-11-07T01:52:58.027Z,7.76
2023-11-07T01:57:58.027Z,7.81
2023-11-07T02:03:01.025Z,7.89
2023-11-07T02:07:57.764Z,7.90
2023-11-07T02:12:57.767Z,7.85
2023-11-07T02:17:57.775Z,7.78
2023-11-07T02:22:57.694Z,7.74
2023-11-07T02:27:57.543Z,7.73
2023-11-07T02:32:57.680Z,7.74
2023-11-07T02:37:57.409Z,7.75
2023-11-07T02:42:57.375Z,7.74
2023-11-07T02:47:57.348Z,7.76
2023-11-07T02:52:57.335Z,7.78
2023-11-07T02:57:57.186Z,7.77
2023-11-07T03:03:00.329Z,7.71
2023-11-07T03:07:57.154Z,7.66
2023-11-07T03:12:56.983Z,7.62
2023-11-07T03:17:56.926Z,7.60
2023-11-07T03:22:56.862Z,7.58
2023-11-07T03:27:56.735Z,7.58
2023-11-07T03:32:56.824Z,7.56
2023-11-07T03:37:56.707Z,7.50
2023-11-07T03:42:56.670Z,7.43
2023-11-07T03:47:56.593Z,7.40
2023-11-07T03:52:56.554Z,7.39
2023-11-07T03:57:56.399Z,7.39
2023-11-07T04:02:59.438Z,7.40
2023-11-07T04:07:56.320Z,7.46
2023-11-07T04:12:56.316Z,7.53
2023-11-07T04:17:56.296Z,7.59
2023-11-07T04:22:56.086Z,7.67
2023-11-07T04:27:56.101Z,7.73
2023-11-07T04:32:56.040Z,7.77
2023-11-07T04:37:55.984Z,7.84
2023-11-07T04:42:55.892Z,7.92
2023-11-07T04:47:55.917Z,8.01
2023-11-07T04:52:55.728Z,8.11
2023-11-07T04:57:55.653Z,8.22
2023-11-07T05:02:58.703Z,8.30
2023-11-07T05:07:55.499Z,8.35
2023-11-07T05:12:55.482Z,8.37
2023-11-07T05:17:55.560Z,8.36
2023-11-07T05:22:55.398Z,8.39
2023-11-07T05:27:55.197Z,8.44
2023-11-07T05:32:55.265Z,8.47
2023-11-07T05:37:55.148Z,8.49
2023-11-07T05:42:55.086Z,8.49
2023-11-07T05:47:55.012Z,8.48
2023-11-07T05:52:54.909Z,8.45
2023-11-07T05:57:54.899Z,8.43
2023-11-07T06:02:57.875Z,8.45
2023-11-07T06:07:54.651Z,8.50
2023-11-07T06:12:54.827Z,8.55
2023-11-07T06:17:54.688Z,8.60
2023-11-07T06:22:54.474Z,8.62
2023-11-07T06:27:54.376Z,8.64
2023-11-07T06:32:54.412Z,8.64
2023-11-07T06:37:54.419Z,8.63
2023-11-07T06:42:54.215Z,8.63
2023-11-07T06:47:54.182Z,8.70
2023-11-07T06:52:54.129Z,8.77
2023-11-07T06:57:54.129Z,8.82
2023-11-07T07:02:58.324Z,8.85
2023-11-07T07:07:53.999Z,8.87
2023-11-07T07:12:53.873Z,8.90
2023-11-07T07:17:53.884Z,8.95
2023-11-07T07:22:53.851Z,9.01
2023-11-07T07:27:54.934Z,9.11
2023-11-07T07:32:53.649Z,9.28
2023-11-07T07:37:54.190Z,9.44
2023-11-07T07:42:53.492Z,9.54
2023-11-07T07:47:53.427Z,9.55
2023-11-07T07:52:53.313Z,9.49
2023-11-07T07:57:53.195Z,9.39
2023-11-07T08:02:56.185Z,9.27
2023-11-07T08:07:53.056Z,9.14
2023-11-07T08:12:53.035Z,9.08
2023-11-07T08:17:53.024Z,9.12
2023-11-07T08:22:53.064Z,9.15
2023-11-07T08:27:52.840Z,9.12
2023-11-07T08:32:52.963Z,9.10
2023-11-07T08:37:52.660Z,9.10
2023-11-07T08:42:52.656Z,9.11
2023-11-07T08:47:52.671Z,9.15
2023-11-07T08:52:52.525Z,9.20
2023-11-07T08:57:52.395Z,9.27
2023-11-07T09:02:55.562Z,9.38
2023-11-07T09:07:52.334Z,9.51
2023-11-07T09:12:52.285Z,9.62
2023-11-07T09:17:52.152Z,9.71
2023-11-07T09:22:52.135Z,9.77
2023-11-07T09:27:52.044Z,9.87
2023-11-07T09:32:52.447Z,10.12
2023-11-07T09:37:51.884Z,10.46
2023-11-07T09:42:51.849Z,10.65
2023-11-07T09:47:52.132Z,10.71
2023-11-07T09:52:51.718Z,10.73
2023-11-07T09:57:56.243Z,10.75
2023-11-07T10:02:55.668Z,10.81
2023-11-07T10:07:51.480Z,10.92
2023-11-07T10:12:51.468Z,10.99
2023-11-07T10:17:51.429Z,10.97
2023-11-07T10:22:51.377Z,10.94
2023-11-07T10:27:51.237Z,10.94
2023-11-07T10:32:51.242Z,10.91
2023-11-07T10:37:51.095Z,10.88
2023-11-07T10:42:51.046Z,10.89
2023-11-07T10:47:51.037Z,10.89
2023-11-07T10:52:50.897Z,10.88
2023-11-07T10:57:51.079Z,10.88
2023-11-07T11:02:53.803Z,10.85
2023-11-07T11:07:50.659Z,10.81
2023-11-07T11:12:50.601Z,10.89
2023-11-07T11:17:50.605Z,11.05
2023-11-07T11:22:50.520Z,11.23
2023-11-07T11:27:50.396Z,11.30
2023-11-07T11:32:50.409Z,11.29
2023-11-07T11:37:50.256Z,11.27
2023-11-07T11:42:50.255Z,11.21
2023-11-07T11:47:50.286Z,11.11
2023-11-07T11:52:50.121Z,10.98
2023-11-07T11:57:49.992Z,10.86
2023-11-07T12:02:53.211Z,10.79
2023-11-07T12:07:49.937Z,10.83
2023-11-07T12:12:49.849Z,10.95
2023-11-07T12:17:49.819Z,11.07
2023-11-07T12:22:49.723Z,11.12
2023-11-07T12:27:49.608Z,11.11
2023-11-07T12:32:49.708Z,11.12
2023-11-07T12:37:49.399Z,11.13
2023-11-07T12:42:49.404Z,11.10
2023-11-07T12:47:49.405Z,11.10
2023-11-07T12:52:49.291Z,11.23
2023-11-07T12:57:49.175Z,11.38
2023-11-07T13:02:52.287Z,11.38
2023-11-07T13:07:49.109Z,11.33
2023-11-07T13:12:49.076Z,11.26
2023-11-07T13:17:48.935Z,11.16
2023-11-07T13:22:48.881Z,11.11
2023-11-07T13:27:48.763Z,11.11
2023-11-07T13:32:48.892Z,11.16
2023-11-07T13:37:48.672Z,11.14
2023-11-07T13:42:48.648Z,11.03
2023-11-07T13:47:48.547Z,10.92
2023-11-07T13:52:48.462Z,10.81
2023-11-07T13:57:48.386Z,10.72
2023-11-07T14:02:51.484Z,10.64
2023-11-07T14:07:48.234Z,10.59
2023-11-07T14:12:48.477Z,10.54
2023-11-07T14:17:48.199Z,10.51
2023-11-07T14:22:48.272Z,10.48
2023-11-07T14:27:47.980Z,10.45
2023-11-07T14:32:48.041Z,10.40
2023-11-07T14:37:47.859Z,10.30
2023-11-07T14:42:47.839Z,10.18
2023-11-07T14:47:47.736Z,10.06
2023-11-07T14:52:47.741Z,9.97
2023-11-07T14:57:47.588Z,9.90
2023-11-07T15:02:50.596Z,9.83
2023-11-07T15:07:47.491Z,9.76
2023-11-07T15:12:47.484Z,9.68
2023-11-07T15:17:47.371Z,9.61
2023-11-07T15:22:47.352Z,9.56
2023-11-07T15:27:47.174Z,9.53
2023-11-07T15:32:47.244Z,9.47
2023-11-07T15:37:47.024Z,9.41
2023-11-07T15:42:47.041Z,9.32
2023-11-07T15:47:47.140Z,9.21
2023-11-07T15:52:55.921Z,9.10
2023-11-07T15:57:47.844Z,9.00
2023-11-07T16:02:49.807Z,8.91
2023-11-07T16:07:46.748Z,8.80
2023-11-07T16:12:46.610Z,8.68
2023-11-07T16:17:46.601Z,8.58
2023-11-07T16:22:46.501Z,8.52
2023-11-07T16:27:46.457Z,8.47
2023-11-07T16:32:46.402Z,8.39
2023-11-07T16:37:46.245Z,8.30
2023-11-07T16:42:46.352Z,8.22
2023-11-07T16:47:46.262Z,8.17
2023-11-07T16:52:46.074Z,8.15
2023-11-07T16:57:46.309Z,8.11
2023-11-07T17:02:49.405Z,8.05
2023-11-07T17:07:45.892Z,7.97
2023-11-07T17:12:45.862Z,7.87
2023-11-07T17:17:46.004Z,7.79
2023-11-07T17:22:45.750Z,7.74
2023-11-07T17:27:45.586Z,7.66
2023-11-07T17:32:45.567Z,7.53
2023-11-07T17:37:45.405Z,7.42
2023-11-07T17:42:45.543Z,7.34
2023-11-07T17:47:45.326Z,7.28
2023-11-07T17:52:45.332Z,7.25
2023-11-07T17:57:45.159Z,7.20
2023-11-07T18:02:48.141Z,7.15
2023-11-07T18:07:44.997Z,7.12
2023-11-07T18:12:44.980Z,7.13
2023-11-07T18:17:44.930Z,7.15
2023-11-07T18:22:44.812Z,7.17
2023-11-07T18:27:44.740Z,7.24
2023-11-07T18:32:44.862Z,7.27
2023-11-07T18:37:44.599Z,7.24
2023-11-07T18:42:44.588Z,7.20
2023-11-07T18:47:46.857Z,7.17
2023-11-07T18:52:44.519Z,7.12
2023-11-07T18:57:44.322Z,7.05
2023-11-07T19:02:47.299Z,6.99
2023-11-07T19:07:44.173Z,6.89
2023-11-07T19:12:44.254Z,6.79
2023-11-07T19:17:44.137Z,6.69
2023-11-07T19:22:44.021Z,6.61
2023-11-07T19:27:43.931Z,6.54
2023-11-07T19:32:43.908Z,6.44
2023-11-07T19:37:43.892Z,6.38
2023-11-07T19:42:43.873Z,6.38
2023-11-07T19:47:43.836Z,6.47
2023-11-07T19:52:46.188Z,6.57
2023-11-07T19:57:43.556Z,6.70
2023-11-07T20:02:46.590Z,6.81
2023-11-07T20:07:51.228Z,6.86
2023-11-07T20:12:44.365Z,6.86
2023-11-07T20:17:43.348Z,6.83
2023-11-07T20:22:43.281Z,6.79
2023-11-07T20:27:43.284Z,6.75
2023-11-07T20:32:43.154Z,6.73
2023-11-07T20:37:43.203Z,6.66
2023-11-07T20:42:43.258Z,6.57
2023-11-07T20:47:42.966Z,6.47
2023-11-07T20:52:42.865Z,6.41
2023-11-07T20:57:46.649Z,6.41
2023-11-07T21:02:47.038Z,6.41
2023-11-07T21:07:42.661Z,6.40
2023-11-07T21:12:42.648Z,6.42
2023-11-07T21:17:42.580Z,6.45
2023-11-07T21:22:42.528Z,6.45
2023-11-07T21:27:42.396Z,6.46
2023-11-07T21:32:42.347Z,6.45
2023-11-07T21:37:42.245Z,6.41
2023-11-07T21:42:42.330Z,6.41
2023-11-07T21:47:42.134Z,6.41
2023-11-07T21:52:42.087Z,6.43
2023-11-07T21:57:42.034Z,6.47
2023-11-07T22:02:45.059Z,6.50
2023-11-07T22:07:41.902Z,6.55
2023-11-07T22:12:41.923Z,6.59
2023-11-07T22:17:41.793Z,6.56
2023-11-07T22:22:41.774Z,6.46
2023-11-07T22:27:41.655Z,6.33
2023-11-07T22:32:41.884Z,6.20
2023-11-07T22:37:41.459Z,6.14
2023-11-07T22:42:41.924Z,6.14
2023-11-07T22:47:41.482Z,6.14
2023-11-07T22:52:41.384Z,6.12
2023-11-07T22:57:41.316Z,6.13
2023-11-07T23:02:44.228Z,6.13
2023-11-07T23:07:41.058Z,6.13
2023-11-07T23:12:41.101Z,6.12
2023-11-07T23:17:41.157Z,6.14
2023-11-07T23:22:41.556Z,6.16
2023-11-07T23:27:40.867Z,6.17
2023-11-07T23:32:40.932Z,6.15
2023-11-07T23:37:40.694Z,6.15
2023-11-07T23:42:40.711Z,6.17
2023-11-07T23:47:40.638Z,6.17
2023-11-07T23:52:40.890Z,6.17
2023-11-07T23:57:40.442Z,6.17
